Time;durP1;ratioP1;P1;durP2;ratioP2;P2;SDS_P1;SDS_P2;PMS_P1;PMS_P2;Temp;Humidity;BMP_temperature;BMP_pressure;BME280_temperature;BME280_humidity;BME280_pressure;Samples;Min_cycle;Max_cycle;Signal;HPM_P1;HPM_P2
2022/09/19 00:01:43;;;;;;;0.57;0.10;;;24.00;39.00;;;;;;5060582;28;20129;-57
2022/09/19 00:04:13;;;;;;;0.10;0.10;;;24.00;39.10;;;;;;5060052;28;20044;-55
2022/09/19 00:06:41;;;;;;;0.40;0.00;;;24.00;39.20;;;;;;5068237;28;20076;-55
2022/09/19 00:09:11;;;;;;;0.20;0.10;;;24.00;39.30;;;;;;5059047;28;20115;-56
2022/09/19 00:11:41;;;;;;;0.10;0.10;;;24.00;39.40;;;;;;5060303;28;20114;-54
2022/09/19 00:14:13;;;;;;;0.35;0.10;;;24.00;39.40;;;;;;5049835;28;20437;-56
2022/09/19 00:16:44;;;;;;;0.20;0.10;;;23.90;39.40;;;;;;5061038;28;20047;-56
2022/09/19 00:19:14;;;;;;;0.75;0.00;;;23.90;39.50;;;;;;5048524;28;20044;-55
2022/09/19 00:21:43;;;;;;;0.20;0.00;;;23.90;39.50;;;;;;5045174;28;20049;-55
2022/09/19 00:26:58;;;;;;;;;;;23.90;39.60;;;;;;5068304;28;20187;-57
2022/09/19 00:29:26;;;;;;;0.95;0.08;;;23.90;40.10;;;;;;5067592;28;20392;-56
2022/09/19 00:31:53;;;;;;;1.33;0.10;;;23.80;39.60;;;;;;5061082;28;20041;-57
2022/09/19 00:34:21;;;;;;;0.10;0.10;;;23.90;39.60;;;;;;5062405;28;20131;-57
2022/09/19 00:36:48;;;;;;;0.82;0.00;;;23.80;39.60;;;;;;5064488;28;20048;-57
2022/09/19 00:39:18;;;;;;;0.10;0.10;;;23.80;39.60;;;;;;5054073;28;20033;-56
2022/09/19 00:41:46;;;;;;;0.10;0.10;;;23.90;39.70;;;;;;5062904;28;20044;-57
2022/09/19 00:45:02;;;;;;;0.05;0.00;;;23.80;39.70;;;;;;5056442;28;20413;-53
2022/09/19 00:47:35;;;;;;;0.17;0.10;;;23.90;39.70;;;;;;5021794;28;20049;-55
2022/09/19 00:50:08;;;;;;;0.05;0.05;;;23.80;39.80;;;;;;5024920;28;20415;-57
2022/09/19 00:52:41;;;;;;;0.35;0.32;;;23.80;39.90;;;;;;5024842;28;20148;-55
2022/09/19 00:55:09;;;;;;;0.13;0.13;;;23.80;39.80;;;;;;5018506;28;20047;-55
2022/09/19 00:57:43;;;;;;;1.05;0.00;;;23.80;39.80;;;;;;5024983;28;20049;-56
2022/09/19 01:00:12;;;;;;;0.10;0.10;;;23.80;39.80;;;;;;5002583;28;20518;-54
2022/09/19 01:02:41;;;;;;;0.63;0.10;;;23.80;39.90;;;;;;4989836;28;20058;-54
2022/09/19 01:05:09;;;;;;;0.10;0.00;;;23.70;39.80;;;;;;5009102;28;20046;-55
2022/09/19 01:07:51;;;;;;;0.20;0.20;;;23.70;39.80;;;;;;5009854;28;20120;-56
2022/09/19 01:10:36;;;;;;;0.30;0.13;;;23.80;39.80;;;;;;4998271;28;20526;-56
2022/09/19 01:13:12;;;;;;;3.22;0.22;;;23.70;39.70;;;;;;5006646;28;20133;-56
2022/09/19 01:15:54;;;;;;;0.30;0.10;;;23.70;39.80;;;;;;5024008;28;20045;-56
2022/09/19 01:18:31;;;;;;;1.38;0.10;;;23.70;39.80;;;;;;5016006;28;20048;-57
2022/09/19 01:24:37;;;;;;;0.00;0.00;;;23.70;40.00;;;;;;4973447;28;20042;-55
2022/09/19 01:27:40;;;;;;;0.10;0.03;;;23.70;39.90;;;;;;4970546;28;20499;-58
2022/09/19 01:30:10;;;;;;;0.40;0.10;;;23.70;39.90;;;;;;4988899;28;20570;-57
2022/09/19 01:32:51;;;;;;;0.20;0.00;;;23.70;40.00;;;;;;4973072;28;20499;-57
2022/09/19 01:35:24;;;;;;;0.10;0.00;;;23.70;40.00;;;;;;4997912;28;20116;-57
2022/09/19 01:37:58;;;;;;;1.05;0.10;;;23.70;40.10;;;;;;4982028;28;20419;-50
2022/09/19 01:40:25;;;;;;;1.30;0.10;;;23.70;40.10;;;;;;4977468;28;20126;-55
2022/09/19 01:42:59;;;;;;;0.10;0.03;;;23.70;40.10;;;;;;4991955;28;20058;-55
2022/09/19 01:45:31;;;;;;;0.30;0.10;;;23.60;40.10;;;;;;4973339;28;20110;-56
2022/09/19 01:48:14;;;;;;;1.60;0.00;;;23.70;40.20;;;;;;4972656;28;20489;-54
2022/09/19 01:51:14;;;;;;;0.00;0.00;;;23.60;40.10;;;;;;4996891;28;20041;-57
2022/09/19 01:54:07;;;;;;;0.45;0.20;;;23.70;40.20;;;;;;4984689;28;20430;-54
2022/09/19 01:56:54;;;;;;;0.10;0.10;;;23.60;40.20;;;;;;5047918;28;20060;-57
2022/09/19 01:59:38;;;;;;;0.32;0.10;;;23.60;40.30;;;;;;5049382;28;20041;-55
2022/09/19 02:02:15;;;;;;;0.30;0.00;;;23.60;40.30;;;;;;5061933;28;20123;-57
2022/09/19 02:04:49;;;;;;;0.03;0.03;;;23.60;40.40;;;;;;5053907;28;20072;-56
2022/09/19 02:07:24;;;;;;;0.10;0.00;;;23.60;40.50;;;;;;5051954;28;20573;-55
2022/09/19 02:10:00;;;;;;;0.03;0.03;;;23.50;40.40;;;;;;5034048;28;20056;-57
2022/09/19 02:12:32;;;;;;;0.10;0.05;;;23.50;40.40;;;;;;5064052;28;20513;-55
2022/09/19 02:15:03;;;;;;;1.77;0.10;;;23.60;40.60;;;;;;5059104;28;20123;-58
2022/09/19 02:17:44;;;;;;;0.15;0.00;;;23.50;40.50;;;;;;5049365;28;20032;-58
2022/09/19 02:20:19;;;;;;;0.10;0.10;;;23.60;40.60;;;;;;5061176;28;20132;-56
2022/09/19 02:22:51;;;;;;;0.75;0.50;;;23.50;40.60;;;;;;5076675;28;20049;-57
2022/09/19 02:25:23;;;;;;;0.10;0.00;;;23.50;40.60;;;;;;5053861;28;20493;-57
2022/09/19 02:27:56;;;;;;;0.47;0.10;;;23.50;40.60;;;;;;5036803;28;20578;-57
2022/09/19 02:30:24;;;;;;;1.00;0.00;;;23.50;40.60;;;;;;5056629;28;20055;-58
2022/09/19 02:32:55;;;;;;;2.08;0.10;;;23.50;40.60;;;;;;5066027;28;20802;-57
2022/09/19 02:35:34;;;;;;;0.30;0.10;;;23.50;40.60;;;;;;5067236;28;20040;-57
2022/09/19 02:38:10;;;;;;;0.10;0.10;;;23.50;40.60;;;;;;5062265;28;20053;-57
2022/09/19 02:40:47;;;;;;;0.10;0.10;;;23.50;40.60;;;;;;5047309;28;20045;-56
2022/09/19 02:43:21;;;;;;;0.90;0.10;;;23.50;40.60;;;;;;5046747;28;20132;-52
2022/09/19 02:45:53;;;;;;;0.10;0.10;;;23.50;40.60;;;;;;5053882;28;20045;-54
2022/09/19 02:48:29;;;;;;;0.10;0.00;;;23.50;40.70;;;;;;5052097;28;20049;-54
2022/09/19 02:51:04;;;;;;;0.63;0.15;;;23.50;40.70;;;;;;5058624;28;20115;-57
2022/09/19 02:53:38;;;;;;;0.40;0.10;;;23.50;40.70;;;;;;5055278;28;20097;-54
2022/09/19 02:56:13;;;;;;;0.13;0.05;;;23.50;40.70;;;;;;5061335;28;20041;-55
2022/09/19 02:58:52;;;;;;;0.10;0.10;;;23.50;40.90;;;;;;5052449;28;20418;-57
2022/09/19 03:01:25;;;;;;;0.00;0.00;;;23.50;40.80;;;;;;5063058;28;20106;-58
2022/09/19 03:04:12;;;;;;;0.30;0.00;;;23.40;40.80;;;;;;5059081;28;20049;-53
2022/09/19 03:06:48;;;;;;;0.10;0.10;;;23.40;40.90;;;;;;5054674;28;20052;-58
2022/09/19 03:09:19;;;;;;;0.90;0.10;;;23.40;40.90;;;;;;5048157;28;20048;-57
2022/09/19 03:11:53;;;;;;;0.00;0.00;;;23.40;40.90;;;;;;5063720;28;20037;-58
2022/09/19 03:14:21;;;;;;;0.85;0.10;;;23.40;40.90;;;;;;5056338;28;20056;-58
2022/09/19 03:16:56;;;;;;;0.30;0.10;;;23.40;40.90;;;;;;5054672;28;20056;-58
2022/09/19 03:19:25;;;;;;;0.20;0.00;;;23.40;40.90;;;;;;5055667;28;20040;-56
2022/09/19 03:21:55;;;;;;;0.10;0.00;;;23.40;41.00;;;;;;5063397;28;20052;-57
2022/09/19 03:24:22;;;;;;;3.60;0.10;;;23.40;41.00;;;;;;5066937;28;20044;-52
2022/09/19 03:26:50;;;;;;;0.80;0.08;;;23.40;41.00;;;;;;5066886;28;20037;-56
2022/09/19 03:29:17;;;;;;;0.47;0.10;;;23.40;41.10;;;;;;5059741;28;20110;-55
2022/09/19 03:31:53;;;;;;;0.00;0.00;;;23.40;41.20;;;;;;5047984;28;20037;-57
2022/09/19 03:34:21;;;;;;;1.67;0.00;;;23.40;41.20;;;;;;5048120;28;20094;-56
2022/09/19 03:36:51;;;;;;;0.63;0.00;;;23.40;41.20;;;;;;5054245;28;20036;-57
2022/09/19 03:39:28;;;;;;;0.63;0.10;;;23.40;41.20;;;;;;5047717;28;20133;-57
2022/09/19 03:41:56;;;;;;;0.00;0.00;;;23.30;41.20;;;;;;5051153;28;20161;-57
2022/09/19 03:44:23;;;;;;;0.50;0.00;;;23.40;41.20;;;;;;5066789;28;20094;-56
2022/09/19 03:46:51;;;;;;;0.80;0.38;;;23.40;41.30;;;;;;5050303;28;20521;-56
2022/09/19 03:49:19;;;;;;;0.35;0.00;;;23.30;41.20;;;;;;5047810;28;20712;-56
2022/09/19 03:51:46;;;;;;;0.17;0.00;;;23.40;41.30;;;;;;5051143;28;20499;-56
2022/09/19 03:54:16;;;;;;;0.35;0.00;;;23.30;41.20;;;;;;5060839;28;20052;-57
2022/09/19 03:56:44;;;;;;;0.00;0.00;;;23.30;41.20;;;;;;5056726;28;20131;-56
2022/09/19 03:59:12;;;;;;;0.15;0.10;;;23.30;41.20;;;;;;5051506;28;20040;-55
2022/09/19 04:01:41;;;;;;;0.20;0.00;;;23.30;41.20;;;;;;5052612;28;20047;-55
2022/09/19 04:04:10;;;;;;;0.35;0.10;;;23.30;41.30;;;;;;5049655;28;20041;-56
2022/09/19 04:06:42;;;;;;;0.65;0.08;;;23.30;41.30;;;;;;5049032;28;20086;-55
2022/09/19 04:09:11;;;;;;;0.32;0.10;;;23.30;41.30;;;;;;5052537;28;20044;-53
2022/09/19 04:11:41;;;;;;;1.20;0.10;;;23.30;41.30;;;;;;5046908;28;20044;-53
2022/09/19 04:14:09;;;;;;;0.82;0.10;;;23.30;41.30;;;;;;5063077;28;20053;-55
2022/09/19 04:16:36;;;;;;;0.45;0.10;;;23.30;41.30;;;;;;5047315;28;20041;-57
2022/09/19 04:19:05;;;;;;;0.20;0.10;;;23.30;41.30;;;;;;5064682;28;20098;-54
2022/09/19 04:21:47;;;;;;;0.40;0.00;;;23.30;41.30;;;;;;5066090;28;20044;-57
2022/09/19 04:24:39;;;;;;;0.10;0.03;;;23.30;41.30;;;;;;5044325;28;20041;-57
2022/09/19 04:27:30;;;;;;;0.95;0.00;;;23.20;41.30;;;;;;5054396;28;20821;-57
2022/09/19 04:29:59;;;;;;;0.10;0.10;;;23.20;41.20;;;;;;5057351;28;20059;-58
2022/09/19 04:32:27;;;;;;;0.25;0.10;;;23.20;41.30;;;;;;5047097;28;20044;-57
2022/09/19 04:34:57;;;;;;;0.10;0.10;;;23.20;41.30;;;;;;5046812;28;20183;-52
2022/09/19 04:37:29;;;;;;;0.20;0.00;;;23.30;41.30;;;;;;5048198;28;20045;-53
2022/09/19 04:40:07;;;;;;;3.65;0.00;;;23.30;41.30;;;;;;5046702;28;20569;-57
2022/09/19 04:42:36;;;;;;;0.00;0.00;;;23.20;41.20;;;;;;5065836;28;20125;-56
2022/09/19 04:45:07;;;;;;;0.03;0.00;;;23.20;41.20;;;;;;5062764;28;20066;-57
2022/09/19 04:47:39;;;;;;;0.73;0.00;;;23.20;41.20;;;;;;5047825;28;20515;-59
2022/09/19 04:50:08;;;;;;;1.55;0.00;;;23.20;41.30;;;;;;5064173;28;20128;-58
2022/09/19 04:52:37;;;;;;;9.57;0.10;;;23.20;41.30;;;;;;5056522;28;20063;-58
2022/09/19 04:55:05;;;;;;;4.95;0.10;;;23.20;41.30;;;;;;5054313;28;20049;-57
2022/09/19 04:57:32;;;;;;;0.65;0.65;;;23.20;41.30;;;;;;5057925;28;20049;-56
2022/09/19 05:00:09;;;;;;;0.10;0.10;;;23.20;41.30;;;;;;5060155;28;20045;-57
2022/09/19 05:02:38;;;;;;;1.77;0.10;;;23.20;41.40;;;;;;5061795;28;20052;-56
2022/09/19 05:05:07;;;;;;;0.17;0.10;;;23.20;41.40;;;;;;5059771;28;20429;-54
2022/09/19 05:07:34;;;;;;;0.20;0.10;;;23.20;41.50;;;;;;5072676;28;20448;-56
2022/09/19 05:10:03;;;;;;;0.30;0.00;;;23.20;41.50;;;;;;5057473;28;20076;-54
2022/09/19 05:12:36;;;;;;;0.65;0.10;;;23.20;41.50;;;;;;5069429;28;20134;-51
2022/09/19 05:15:04;;;;;;;0.30;0.10;;;23.20;41.70;;;;;;5057859;28;20072;-55
2022/09/19 05:17:32;;;;;;;0.00;0.00;;;23.20;41.70;;;;;;5052840;28;20033;-54
2022/09/19 05:19:59;;;;;;;0.65;0.28;;;23.20;41.70;;;;;;5050768;28;20115;-56
2022/09/19 05:22:29;;;;;;;1.75;0.10;;;23.10;41.60;;;;;;5056007;28;20076;-56
2022/09/19 05:25:04;;;;;;;0.30;0.10;;;23.10;41.70;;;;;;5057410;28;20049;-56
2022/09/19 05:27:33;;;;;;;0.45;0.10;;;23.10;41.70;;;;;;5051675;28;20076;-54
2022/09/19 05:30:00;;;;;;;0.50;0.00;;;23.10;41.70;;;;;;5044922;28;20041;-51
2022/09/19 05:32:34;;;;;;;0.57;0.05;;;23.10;41.70;;;;;;5050952;28;20057;-56
2022/09/19 05:35:21;;;;;;;1.45;0.30;;;23.10;41.70;;;;;;5066495;28;20045;-55
2022/09/19 05:38:01;;;;;;;0.75;0.00;;;23.10;41.70;;;;;;5051045;28;20689;-55
2022/09/19 05:40:46;;;;;;;0.15;0.10;;;23.10;41.60;;;;;;5056666;28;20115;-56
2022/09/19 05:43:23;;;;;;;0.28;0.10;;;23.10;41.60;;;;;;5065923;28;20464;-53
2022/09/19 05:45:51;;;;;;;0.10;0.10;;;23.00;41.50;;;;;;5070174;28;20102;-57
2022/09/19 05:48:20;;;;;;;1.10;0.10;;;23.00;41.50;;;;;;5068296;28;20175;-56
2022/09/19 05:50:49;;;;;;;0.47;0.10;;;23.00;41.50;;;;;;5064894;28;20051;-52
2022/09/19 05:56:13;;;;;;;0.75;0.10;;;23.00;41.50;;;;;;5063080;28;20049;-55
2022/09/19 05:58:53;;;;;;;2.05;0.20;;;23.00;41.50;;;;;;5058766;28;20044;-57
2022/09/19 06:01:20;;;;;;;0.10;0.10;;;23.00;41.50;;;;;;5055329;28;20032;-56
2022/09/19 06:03:49;;;;;;;0.10;0.05;;;23.00;41.60;;;;;;5063179;28;20057;-56
2022/09/19 06:06:19;;;;;;;0.10;0.08;;;23.00;41.60;;;;;;5054283;28;20045;-55
2022/09/19 06:08:48;;;;;;;1.38;0.30;;;23.00;41.60;;;;;;5058151;28;20056;-56
2022/09/19 06:11:16;;;;;;;0.10;0.03;;;22.90;41.60;;;;;;5057071;28;20086;-56
2022/09/19 06:16:27;;;;;;;0.22;0.10;;;22.90;41.60;;;;;;5053107;28;20076;-55
2022/09/19 06:19:14;;;;;;;1.05;0.10;;;22.90;41.60;;;;;;5063133;28;20045;-61
2022/09/19 06:21:42;;;;;;;2.25;0.28;;;22.90;41.60;;;;;;5054121;28;20036;-57
2022/09/19 06:24:10;;;;;;;0.28;0.10;;;22.90;41.60;;;;;;5050534;28;20045;-57
2022/09/19 06:26:38;;;;;;;0.32;0.10;;;22.90;41.70;;;;;;5066275;28;20045;-58
2022/09/19 06:29:06;;;;;;;0.52;0.10;;;22.90;41.80;;;;;;5054339;28;20056;-57
2022/09/19 06:31:35;;;;;;;1.23;0.32;;;22.90;41.80;;;;;;5051400;28;20047;-57
2022/09/19 06:34:21;;;;;;;1.00;0.08;;;22.90;41.60;;;;;;5045376;28;20064;-57
2022/09/19 06:36:48;;;;;;;0.93;0.10;;;22.90;42.00;;;;;;5054200;28;20132;-59
2022/09/19 06:39:15;;;;;;;0.13;0.10;;;23.00;42.30;;;;;;5058144;28;20068;-54
2022/09/19 06:41:49;;;;;;;0.20;0.10;;;23.10;42.40;;;;;;5032391;28;20535;-61
2022/09/19 06:44:52;;;;;;;0.47;0.10;;;23.20;42.30;;;;;;5011343;28;20045;-59
2022/09/19 06:47:57;;;;;;;1.10;0.17;;;23.20;42.10;;;;;;5003262;28;20053;-55
2022/09/19 06:50:52;;;;;;;0.40;0.10;;;23.30;42.00;;;;;;4963492;28;20536;-53
2022/09/19 06:53:19;;;;;;;0.20;0.10;;;23.30;41.90;;;;;;4958821;28;20058;-50
2022/09/19 06:55:49;;;;;;;2.70;0.20;;;23.40;41.90;;;;;;4967109;28;20070;-58
2022/09/19 06:58:20;;;;;;;2.60;0.10;;;23.50;41.90;;;;;;4962719;28;20489;-58
2022/09/19 07:00:48;;;;;;;0.20;0.10;;;23.50;41.90;;;;;;4970795;28;20053;-55
2022/09/19 07:03:18;;;;;;;2.83;0.10;;;23.60;41.80;;;;;;4947942;28;20086;-53
2022/09/19 07:06:01;;;;;;;0.60;0.10;;;23.60;41.70;;;;;;4936867;28;20061;-51
2022/09/19 07:08:39;;;;;;;0.55;0.10;;;23.70;42.20;;;;;;4969630;28;20046;-54
2022/09/19 07:11:08;;;;;;;0.38;0.10;;;23.70;41.60;;;;;;4966823;28;20050;-52
2022/09/19 07:13:39;;;;;;;1.95;0.40;;;23.70;41.50;;;;;;4969864;28;20086;-55
2022/09/19 07:16:10;;;;;;;0.60;0.35;;;23.80;41.40;;;;;;4972442;28;20042;-51
2022/09/19 07:18:38;;;;;;;0.43;0.22;;;23.90;42.00;;;;;;4968179;28;20126;-52
2022/09/19 07:32:38;;;;;;;1.30;0.20;;;24.10;41.10;;;;;;3961410;29;20639;-58
2022/09/19 07:35:07;;;;;;;1.40;0.28;;;24.10;41.10;;;;;;4815795;29;20039;-53
2022/09/19 07:37:36;;;;;;;1.02;0.20;;;24.10;40.90;;;;;;4815649;29;20618;-57
2022/09/19 07:40:24;;;;;;;4.60;0.47;;;24.20;40.90;;;;;;4819206;29;20046;-63
2022/09/19 07:43:03;;;;;;;1.42;0.10;;;24.20;40.70;;;;;;4815419;29;20713;-62
2022/09/19 07:45:51;;;;;;;1.60;0.40;;;24.30;40.70;;;;;;4819934;29;20077;-56
2022/09/19 07:48:43;;;;;;;0.80;0.10;;;24.30;40.60;;;;;;4814573;29;20051;-55
2022/09/19 07:51:23;;;;;;;1.65;0.10;;;24.40;40.60;;;;;;4813842;29;20042;-58
2022/09/19 07:53:52;;;;;;;2.60;0.10;;;24.40;40.60;;;;;;4827389;29;20089;-65
2022/09/19 07:56:19;;;;;;;0.90;0.10;;;24.50;40.50;;;;;;4821697;29;20050;-68
2022/09/19 07:58:46;;;;;;;0.30;0.10;;;24.50;40.40;;;;;;4820976;29;20511;-59
2022/09/19 08:01:14;;;;;;;0.55;0.13;;;24.50;40.30;;;;;;4824058;29;20045;-61
2022/09/19 08:04:12;;;;;;;5.35;0.10;;;24.60;40.30;;;;;;4802655;29;20050;-71
2022/09/19 08:06:46;;;;;;;0.43;0.10;;;24.70;40.30;;;;;;4816709;29;20062;-70
2022/09/19 08:09:15;;;;;;;0.40;0.10;;;24.70;40.20;;;;;;4813999;29;20110;-64
2022/09/19 08:12:02;;;;;;;2.47;0.32;;;24.80;40.20;;;;;;4816326;29;20050;-54
2022/09/19 08:14:31;;;;;;;6.40;0.10;;;24.90;40.20;;;;;;4818329;29;20136;-62
2022/09/19 08:16:58;;;;;;;1.23;0.10;;;24.90;40.10;;;;;;4816513;29;20449;-61
2022/09/19 08:19:28;;;;;;;3.72;0.13;;;25.00;40.00;;;;;;4814858;29;20543;-60
2022/09/19 08:21:55;;;;;;;2.17;0.20;;;25.20;40.00;;;;;;4831799;29;20881;-60
2022/09/19 08:24:22;;;;;;;5.32;0.63;;;25.30;39.90;;;;;;4819929;29;20149;-61
2022/09/19 08:26:51;;;;;;;4.70;0.73;;;25.30;39.60;;;;;;4814910;29;20157;-59
2022/09/19 08:29:20;;;;;;;1.20;0.30;;;25.40;40.10;;;;;;4818022;29;20046;-61
2022/09/19 08:31:59;;;;;;;1.95;0.40;;;25.60;39.30;;;;;;4832910;29;20073;-60
2022/09/19 08:34:27;;;;;;;7.85;1.10;;;25.70;39.10;;;;;;4819630;29;20042;-57
2022/09/19 08:36:58;;;;;;;0.85;0.10;;;25.70;39.00;;;;;;4818295;29;20046;-58
2022/09/19 08:39:26;;;;;;;5.93;0.30;;;25.80;38.90;;;;;;4812231;29;20049;-57
2022/09/19 08:42:05;;;;;;;1.20;0.15;;;25.80;38.70;;;;;;4819272;29;20094;-55
2022/09/19 08:44:48;;;;;;;1.52;0.90;;;25.90;38.60;;;;;;4798006;29;20080;-53
2022/09/19 08:47:19;;;;;;;1.50;0.20;;;25.90;38.50;;;;;;4817809;29;20046;-54
2022/09/19 08:49:54;;;;;;;10.35;0.77;;;25.90;38.50;;;;;;4812150;29;20050;-59
2022/09/19 08:52:36;;;;;;;1.88;0.10;;;25.90;38.50;;;;;;4819409;29;20050;-58
2022/09/19 08:55:12;;;;;;;7.75;0.65;;;25.90;38.40;;;;;;4817530;29;20042;-61
2022/09/19 08:57:43;;;;;;;;;;;25.90;38.50;;;;;;4828162;29;20074;-59
2022/09/19 09:00:18;;;;;;;5.05;0.63;;;25.90;38.40;;;;;;4815599;29;19981;-59
2022/09/19 09:02:54;;;;;;;2.58;0.22;;;25.90;38.40;;;;;;4800986;29;20132;-58
2022/09/19 09:05:34;;;;;;;10.73;0.68;;;26.00;38.30;;;;;;4829004;29;20083;-58
2022/09/19 09:08:09;;;;;;;4.55;0.10;;;26.00;38.20;;;;;;4818021;29;20380;-59
2022/09/19 09:11:05;;;;;;;1.98;0.20;;;26.00;38.20;;;;;;4816364;29;20058;-58
2022/09/19 09:13:45;;;;;;;4.07;0.30;;;26.00;38.20;;;;;;4817960;29;20042;-59
2022/09/19 09:16:22;;;;;;;5.70;0.20;;;26.00;38.00;;;;;;4818325;29;20067;-59
2022/09/19 09:19:08;;;;;;;1.27;0.15;;;26.00;37.90;;;;;;4815728;29;20046;-59
2022/09/19 09:21:46;;;;;;;4.05;0.30;;;26.00;38.00;;;;;;4817961;29;20043;-59
2022/09/19 09:24:20;;;;;;;1.77;0.10;;;26.00;38.00;;;;;;4832493;29;20092;-59
2022/09/19 09:27:11;;;;;;;2.30;0.20;;;26.00;37.80;;;;;;4833918;29;20051;-59
2022/09/19 09:29:44;;;;;;;1.65;0.17;;;26.00;37.90;;;;;;4835897;29;20070;-59
2022/09/19 09:32:28;;;;;;;0.45;0.10;;;26.00;37.60;;;;;;4836551;29;20110;-58
2022/09/19 09:35:01;;;;;;;1.85;0.43;;;25.90;37.50;;;;;;4829353;29;20042;-59
2022/09/19 09:37:35;;;;;;;1.52;0.10;;;25.90;37.50;;;;;;4821482;29;20051;-59
2022/09/19 09:40:13;;;;;;;1.05;0.35;;;25.90;37.30;;;;;;4820773;29;20125;-58
2022/09/19 09:42:50;;;;;;;0.90;0.22;;;26.00;37.40;;;;;;4835865;29;20133;-58
2022/09/19 09:45:29;;;;;;;0.63;0.10;;;25.90;37.20;;;;;;4821039;29;20124;-58
2022/09/19 09:48:08;;;;;;;1.52;0.20;;;26.00;37.20;;;;;;4836321;29;20046;-58
2022/09/19 09:50:41;;;;;;;;;;;25.90;37.10;;;;;;4836989;29;20046;-59
2022/09/19 09:53:20;;;;;;;2.88;0.10;;;25.90;37.20;;;;;;4836131;29;19933;-58
2022/09/19 09:58:52;;;;;;;3.17;0.10;;;25.90;36.90;;;;;;4820605;29;20060;-59
2022/09/19 10:04:33;;;;;;;0.80;0.08;;;25.90;36.50;;;;;;4765867;30;20663;-57
2022/09/19 10:07:17;;;;;;;0.45;0.00;;;25.90;36.50;;;;;;4765775;30;20536;-58
2022/09/19 10:09:53;;;;;;;0.15;0.10;;;25.90;36.40;;;;;;4762300;30;20047;-58
2022/09/19 10:12:25;;;;;;;5.05;0.10;;;25.90;36.20;;;;;;4765330;30;20134;-58
2022/09/19 10:14:58;;;;;;;0.82;0.10;;;25.90;36.10;;;;;;4750621;30;20137;-57
2022/09/19 10:17:40;;;;;;;0.25;0.10;;;25.90;36.00;;;;;;4748228;30;20109;-58
2022/09/19 10:20:18;;;;;;;1.25;0.00;;;26.00;36.10;;;;;;4765491;30;20060;-58
2022/09/19 10:22:47;;;;;;;2.65;0.08;;;25.90;36.00;;;;;;4750626;30;20134;-59
2022/09/19 10:25:19;;;;;;;0.50;0.10;;;26.00;36.00;;;;;;4750437;30;20059;-60
2022/09/19 10:27:49;;;;;;;0.75;0.10;;;25.90;35.80;;;;;;4760081;30;20051;-60
2022/09/19 10:30:41;;;;;;;1.65;0.03;;;25.90;35.90;;;;;;4765588;30;20394;-59
2022/09/19 10:33:28;;;;;;;3.40;0.10;;;25.90;35.90;;;;;;4765998;30;20087;-61
2022/09/19 10:36:07;;;;;;;6.60;1.35;;;26.00;36.00;;;;;;4801864;29;20137;-60
2022/09/19 10:38:48;;;;;;;2.58;0.10;;;25.90;36.00;;;;;;4819192;29;20551;-60
2022/09/19 10:41:22;;;;;;;0.10;0.10;;;26.00;36.10;;;;;;4834915;29;20085;-61
2022/09/19 10:43:55;;;;;;;0.20;0.00;;;26.00;36.10;;;;;;4835235;29;20530;-60
2022/09/19 10:46:35;;;;;;;0.10;0.00;;;26.00;36.70;;;;;;4835290;29;20121;-60
2022/09/19 10:49:25;;;;;;;0.30;0.10;;;26.00;36.10;;;;;;4817439;29;20049;-60
2022/09/19 10:51:59;;;;;;;0.00;0.00;;;25.90;36.00;;;;;;4820319;29;20846;-60
2022/09/19 10:54:33;;;;;;;0.35;0.28;;;25.90;36.00;;;;;;4834847;29;20038;-61
2022/09/19 10:57:04;;;;;;;0.80;0.10;;;26.00;36.10;;;;;;4834987;29;20090;-60
2022/09/19 10:59:36;;;;;;;0.10;0.00;;;26.00;36.10;;;;;;4834751;29;20047;-60
2022/09/19 11:02:24;;;;;;;0.75;0.10;;;26.00;36.10;;;;;;4834697;29;20043;-58
2022/09/19 11:04:56;;;;;;;0.80;0.00;;;26.00;35.90;;;;;;4835062;29;20090;-58
2022/09/19 11:07:27;;;;;;;1.10;0.00;;;26.00;35.80;;;;;;4835151;29;20146;-58
2022/09/19 11:09:59;;;;;;;3.70;0.00;;;26.00;35.60;;;;;;4832530;29;20050;-60
2022/09/19 11:12:30;;;;;;;0.20;0.20;;;26.00;35.70;;;;;;4834991;29;20519;-58
2022/09/19 11:14:57;;;;;;;0.13;0.00;;;26.10;35.80;;;;;;4807659;29;20049;-57
2022/09/19 11:17:43;;;;;;;0.45;0.00;;;26.00;35.60;;;;;;4829671;29;20038;-58
2022/09/19 11:20:37;;;;;;;3.03;0.30;;;26.10;35.50;;;;;;4813765;29;20058;-58
2022/09/19 11:23:57;;;;;;;2.83;0.10;;;26.10;35.60;;;;;;4834229;29;20082;-59
2022/09/19 11:26:37;;;;;;;0.30;0.10;;;26.10;35.60;;;;;;4767166;30;20737;-58
2022/09/19 11:29:27;;;;;;;0.00;0.00;;;26.10;35.50;;;;;;4781980;30;20047;-57
2022/09/19 11:32:06;;;;;;;0.52;0.10;;;26.10;35.50;;;;;;4781888;30;20628;-59
2022/09/19 11:34:50;;;;;;;0.30;0.00;;;26.10;35.50;;;;;;4764155;30;20047;-58
2022/09/19 11:37:30;;;;;;;0.63;0.00;;;26.20;35.80;;;;;;4764153;29;20134;-67
2022/09/19 11:40:08;;;;;;;0.93;0.30;;;26.20;36.50;;;;;;4781143;29;20051;-65
2022/09/19 11:42:47;;;;;;;0.20;0.00;;;26.20;35.80;;;;;;4761207;30;20051;-65
2022/09/19 11:45:18;;;;;;;5.13;0.00;;;26.30;35.70;;;;;;4766645;30;20567;-68
2022/09/19 11:48:07;;;;;;;0.93;0.00;;;26.30;35.70;;;;;;4770386;30;20184;-62
2022/09/19 11:50:59;;;;;;;0.70;0.22;;;26.40;35.70;;;;;;4768561;29;20074;-62
2022/09/19 11:53:50;;;;;;;0.77;0.20;;;26.40;35.60;;;;;;4761477;30;20051;-65
2022/09/19 11:56:48;;;;;;;0.90;0.00;;;26.40;35.60;;;;;;4763083;30;20056;-61
2022/09/19 11:59:30;;;;;;;0.82;0.00;;;26.40;35.50;;;;;;4782400;29;20173;-59
2022/09/19 12:02:21;;;;;;;0.55;0.00;;;26.50;35.70;;;;;;4766525;30;20854;-60
2022/09/19 12:05:01;;;;;;;2.95;0.30;;;26.50;35.70;;;;;;4817213;29;20537;-70
2022/09/19 12:07:41;;;;;;;2.53;0.00;;;26.60;35.70;;;;;;4803778;29;20606;-64
2022/09/19 12:10:17;;;;;;;1.58;0.10;;;26.60;35.70;;;;;;4815933;29;20058;-58
2022/09/19 12:12:48;;;;;;;0.98;0.00;;;26.70;35.80;;;;;;4808889;29;20661;-59
2022/09/19 12:15:28;;;;;;;1.00;0.00;;;26.70;35.90;;;;;;4818259;29;20129;-61
2022/09/19 12:18:04;;;;;;;2.65;0.05;;;26.80;35.90;;;;;;4814636;29;20050;-68
2022/09/19 12:20:42;;;;;;;0.10;0.08;;;26.80;35.90;;;;;;4816328;29;20864;-62
2022/09/19 12:26:09;;;;;;;1.63;0.00;;;27.00;35.80;;;;;;4797853;29;20095;-67
2022/09/19 12:28:41;;;;;;;0.22;0.15;;;27.00;35.70;;;;;;4813564;29;20042;-69
2022/09/19 12:31:14;;;;;;;0.57;0.57;;;27.10;35.60;;;;;;4817605;29;20049;-68
2022/09/19 12:33:49;;;;;;;2.28;0.00;;;27.20;35.50;;;;;;4820336;29;20042;-67
2022/09/19 12:36:24;;;;;;;1.48;0.00;;;27.30;35.40;;;;;;4818951;29;20119;-57
2022/09/19 12:38:55;;;;;;;;;;;27.40;35.40;;;;;;4818926;29;20500;-64
2022/09/19 12:41:33;;;;;;;0.15;0.00;;;27.30;35.40;;;;;;4818240;29;19948;-72
2022/09/19 12:44:05;;;;;;;;;;;27.40;35.20;;;;;;4825026;29;20134;-66
2022/09/19 12:46:54;;;;;;;1.50;0.05;;;27.40;35.20;;;;;;4818874;29;19929;-58
2022/09/19 12:49:35;;;;;;;1.55;0.20;;;27.50;35.00;;;;;;4812260;29;20544;-68
2022/09/19 12:52:12;;;;;;;3.10;0.20;;;27.50;34.90;;;;;;4827392;29;20493;-66
2022/09/19 12:54:47;;;;;;;2.13;0.22;;;27.60;34.90;;;;;;4818217;29;20129;-57
2022/09/19 12:57:22;;;;;;;0.75;0.05;;;27.70;35.00;;;;;;4820382;29;20104;-67
2022/09/19 12:59:53;;;;;;;5.65;0.20;;;27.70;34.80;;;;;;4813728;29;20042;-61
2022/09/19 13:02:26;;;;;;;0.20;0.00;;;27.80;34.80;;;;;;4819516;29;20072;-61
2022/09/19 13:05:00;;;;;;;4.70;0.57;;;27.90;34.90;;;;;;4820815;29;20082;-68
2022/09/19 13:07:35;;;;;;;1.33;0.03;;;27.90;34.90;;;;;;4822977;29;20049;-66
2022/09/19 13:10:15;;;;;;;3.45;0.20;;;28.00;34.80;;;;;;4816609;29;20538;-64
2022/09/19 13:12:48;;;;;;;1.17;0.00;;;28.00;34.70;;;;;;4822509;29;20126;-64
2022/09/19 13:15:21;;;;;;;0.20;0.00;;;28.10;34.70;;;;;;4823049;29;20130;-57
2022/09/19 13:23:33;;;;;;;1.58;0.25;;;28.20;34.60;;;;;;4821496;29;20042;-48
2022/09/19 13:26:33;;;;;;;3.88;0.10;;;28.20;34.60;;;;;;4819540;29;20057;-55
2022/09/19 13:29:01;;;;;;;1.55;0.10;;;28.30;34.70;;;;;;4820151;29;20050;-51
2022/09/19 13:31:38;;;;;;;0.52;0.10;;;28.30;32.30;;;;;;4818407;29;20057;-50
2022/09/19 13:34:40;;;;;;;0.77;0.00;;;28.40;31.40;;;;;;4823376;29;20078;-52
2022/09/19 13:37:44;;;;;;;0.17;0.10;;;28.60;30.60;;;;;;4821325;29;20066;-57
2022/09/19 13:40:24;;;;;;;4.22;0.10;;;28.60;29.60;;;;;;4818397;29;20038;-52
2022/09/19 13:42:59;;;;;;;1.65;0.10;;;28.60;29.00;;;;;;4819874;29;20193;-57
2022/09/19 13:45:35;;;;;;;2.65;0.10;;;28.60;28.80;;;;;;4822263;29;20042;-61
2022/09/19 13:48:11;;;;;;;3.78;0.00;;;28.60;28.60;;;;;;4820575;29;20038;-57
2022/09/19 13:50:45;;;;;;;1.75;0.00;;;28.60;28.40;;;;;;4821186;29;20034;-59
2022/09/19 13:53:32;;;;;;;0.45;0.45;;;28.60;28.30;;;;;;4817615;29;20472;-58
2022/09/19 13:56:04;;;;;;;0.13;0.00;;;28.40;28.30;;;;;;4821059;29;20077;-57
2022/09/19 13:58:32;;;;;;;4.03;0.13;;;28.40;28.30;;;;;;4821580;29;20591;-59
2022/09/19 14:01:19;;;;;;;3.33;0.08;;;28.30;28.60;;;;;;4821819;29;20046;-58
2022/09/19 14:03:52;;;;;;;3.83;0.38;;;28.30;28.60;;;;;;4820902;29;20054;-60
2022/09/19 14:06:27;;;;;;;2.00;0.10;;;28.20;28.60;;;;;;4818489;29;20464;-60
2022/09/19 14:09:20;;;;;;;0.98;0.10;;;28.20;28.90;;;;;;4820322;29;20054;-60